Pagrindinis puslapis
METAR-TAF:

METAR-TAF

Oro uostai :

Čaitenas, Čilė

platuma: 42-55-58S, ilguma: 072-41-58W, Aukštis: 4 m

Dabartinis oras

Ataskaita buvo paskelbta 56 minutes, ne 07:00 UTC
Vėjas 3 kt iš Rytų/Pietryčių
Temperatūra 3°C
Drėgmė 100%
Slėgis 1022 hPa
Matomumas 10 km arba daugiau
nėra debesų žemiau 1500 m ir nėra kamuolinių lietaus debesų

METAR: SCTN 140700Z AUTO 11003KT CAVOK 03/03 Q1022

Laikas: 03:56 (07:56 UTC)


TAF: trūkstamas

Orai ataskaitas ir orų prognozės (METAR, TAF).

turimą stotys yra geltonos ir raudonos taškus žemėlapyje.

Perkelti pele per norėdami pamatyti stoties vardą.

Tada spustelėkite, norėdami matyti oro stebėjimo ir prognozės.

Norėdami pakeisti žemėlapį: spustelėkite ant žalios mygtukų su juodo kryžiaus žemyn,; žalią mygtuką su brūkšneliu, jei norite nutolinti; arba žalių rodyklių gretimoms žemėlapius.


METAR-TAF: